createdAt,value
2023-08-11T00:00:09.949Z,56.58
2023-08-11T00:02:39.546Z,56.92
2023-08-11T00:05:09.566Z,56.86
2023-08-11T00:07:37.136Z,57.32
2023-08-11T00:10:06.294Z,57.11
2023-08-11T00:12:34.207Z,57.35
2023-08-11T00:15:01.912Z,57.73
2023-08-11T00:17:30.997Z,57.86
2023-08-11T00:19:58.958Z,57.70
2023-08-11T00:22:26.441Z,57.73
2023-08-11T00:24:53.970Z,57.80
2023-08-11T00:27:21.896Z,57.83
2023-08-11T00:29:49.380Z,57.59
2023-08-11T00:32:16.918Z,57.31
2023-08-11T00:34:44.881Z,57.07
2023-08-11T00:37:12.357Z,57.73
2023-08-11T00:39:39.997Z,58.03
2023-08-11T00:42:07.862Z,58.52
2023-08-11T00:44:35.354Z,58.74
2023-08-11T00:47:03.650Z,59.19
2023-08-11T00:49:31.500Z,60.22
2023-08-11T00:51:59.045Z,59.50
2023-08-11T00:54:27.862Z,59.06
2023-08-11T00:56:56.199Z,59.45
2023-08-11T00:59:24.370Z,59.35
2023-08-11T01:01:51.885Z,58.92
2023-08-11T01:04:21.207Z,58.72
2023-08-11T01:06:52.773Z,58.95
2023-08-11T01:09:36.940Z,58.50
2023-08-11T01:12:33.875Z,58.08
2023-08-11T01:15:18.320Z,57.93
2023-08-11T01:17:46.703Z,57.92
2023-08-11T01:20:17.388Z,57.71
2023-08-11T01:22:48.138Z,57.64
2023-08-11T01:25:16.301Z,57.84
2023-08-11T01:27:45.812Z,57.93
2023-08-11T01:30:13.846Z,58.27
2023-08-11T01:32:41.973Z,58.15
2023-08-11T01:35:10.831Z,58.03
2023-08-11T01:37:38.364Z,58.23
2023-08-11T01:40:12.755Z,57.88
2023-08-11T01:42:46.818Z,57.92
2023-08-11T01:45:23.156Z,58.14
2023-08-11T01:47:51.152Z,57.76
2023-08-11T01:50:19.459Z,58.27
2023-08-11T01:52:48.789Z,58.52
2023-08-11T01:55:30.879Z,57.99
2023-08-11T01:58:00.496Z,58.08
2023-08-11T02:00:29.548Z,58.09
2023-08-11T02:02:59.675Z,57.97
2023-08-11T02:05:28.349Z,57.88
2023-08-11T02:07:56.992Z,58.25
2023-08-11T02:10:25.194Z,57.89
2023-08-11T02:12:52.681Z,58.36
2023-08-11T02:15:20.333Z,58.48
2023-08-11T02:17:50.049Z,58.81
2023-08-11T02:20:24.720Z,58.47
2023-08-11T02:22:53.903Z,58.65
2023-08-11T02:25:23.628Z,58.45
2023-08-11T02:27:51.671Z,58.45
2023-08-11T02:30:20.131Z,58.91
2023-08-11T02:32:47.937Z,57.77
2023-08-11T02:35:18.742Z,58.66
2023-08-11T02:37:47.084Z,59.18
2023-08-11T02:40:15.865Z,59.94
2023-08-11T02:42:46.646Z,59.79
2023-08-11T02:45:14.998Z,59.67
2023-08-11T02:47:43.531Z,60.17
2023-08-11T02:50:12.026Z,59.09
2023-08-11T02:52:40.207Z,59.58
2023-08-11T02:55:08.934Z,59.25
2023-08-11T02:57:36.841Z,59.71
2023-08-11T03:00:13.359Z,60.05
2023-08-11T03:02:42.425Z,59.91
2023-08-11T03:05:11.414Z,59.71
2023-08-11T03:07:39.745Z,59.73
2023-08-11T03:10:08.248Z,58.16
2023-08-11T03:12:37.281Z,58.90
2023-08-11T03:15:06.659Z,60.00
2023-08-11T03:17:36.657Z,60.57
2023-08-11T03:20:14.076Z,60.79
2023-08-11T03:22:43.676Z,60.72
2023-08-11T03:25:12.952Z,60.97
2023-08-11T03:27:43.217Z,60.42
2023-08-11T03:30:12.423Z,60.57
2023-08-11T03:32:41.271Z,60.21
2023-08-11T03:35:09.564Z,60.40
2023-08-11T03:37:39.016Z,61.52
2023-08-11T03:40:10.482Z,61.40
2023-08-11T03:42:38.767Z,61.40
2023-08-11T03:45:06.805Z,61.10
2023-08-11T03:47:35.224Z,61.50
2023-08-11T03:50:04.122Z,61.85
2023-08-11T03:52:31.754Z,62.50
2023-08-11T03:54:59.244Z,62.34
2023-08-11T03:57:27.561Z,61.76
2023-08-11T03:59:55.360Z,61.99
2023-08-11T04:02:23.418Z,62.19
2023-08-11T04:04:51.222Z,62.03
2023-08-11T04:07:18.707Z,61.94
2023-08-11T04:09:47.809Z,62.17
2023-08-11T04:12:15.662Z,61.86
2023-08-11T04:14:43.112Z,60.96
2023-08-11T04:17:14.814Z,61.43
2023-08-11T04:19:42.940Z,61.68
2023-08-11T04:22:10.629Z,61.72
2023-08-11T04:24:38.662Z,61.43
2023-08-11T04:27:06.674Z,61.38
2023-08-11T04:29:34.253Z,61.70
2023-08-11T04:32:05.700Z,61.57
2023-08-11T04:34:34.397Z,61.34
2023-08-11T04:37:06.529Z,60.91
2023-08-11T04:39:38.068Z,60.81
2023-08-11T04:42:06.743Z,60.22
2023-08-11T04:44:35.334Z,59.74
2023-08-11T04:47:03.085Z,58.89
2023-08-11T04:49:30.697Z,57.41
2023-08-11T04:51:59.374Z,56.91
2023-08-11T04:54:28.515Z,58.06
2023-08-11T04:56:56.606Z,58.15
2023-08-11T04:59:24.404Z,58.07
2023-08-11T05:01:52.011Z,57.04
2023-08-11T05:04:19.626Z,57.31
2023-08-11T05:06:47.674Z,57.09
2023-08-11T05:09:15.239Z,56.99
2023-08-11T05:11:42.733Z,55.92
2023-08-11T05:14:10.626Z,55.45
2023-08-11T05:16:38.270Z,55.61
2023-08-11T05:19:06.405Z,55.03
2023-08-11T05:21:34.235Z,54.97
2023-08-11T05:24:01.724Z,53.86
2023-08-11T05:26:29.599Z,54.28
2023-08-11T05:28:57.570Z,53.84
2023-08-11T05:31:25.597Z,51.73
2023-08-11T05:33:53.483Z,51.94
2023-08-11T05:36:21.395Z,51.49
2023-08-11T05:38:48.861Z,51.94
2023-08-11T05:41:16.442Z,53.63
2023-08-11T05:43:44.332Z,53.97
2023-08-11T05:46:12.434Z,53.31
2023-08-11T05:48:40.118Z,52.27
2023-08-11T05:51:08.052Z,51.35
2023-08-11T05:53:35.715Z,51.72
2023-08-11T05:56:03.337Z,52.05
2023-08-11T05:58:31.110Z,50.14
2023-08-11T06:00:58.756Z,51.19
2023-08-11T06:03:31.443Z,51.27
2023-08-11T06:06:08.211Z,51.50
2023-08-11T06:08:36.349Z,50.30
2023-08-11T06:11:04.413Z,50.29
2023-08-11T06:13:33.283Z,50.17
2023-08-11T06:16:08.177Z,50.09
2023-08-11T06:18:51.760Z,49.21
2023-08-11T06:21:20.706Z,49.70
2023-08-11T06:23:48.612Z,49.38
2023-08-11T06:26:16.397Z,49.80
2023-08-11T06:28:44.439Z,49.69
2023-08-11T06:31:12.118Z,48.47
2023-08-11T06:33:41.804Z,47.96
2023-08-11T06:36:09.978Z,48.31
2023-08-11T06:38:54.825Z,47.54
2023-08-11T06:41:26.116Z,47.22
2023-08-11T06:43:55.543Z,46.90
2023-08-11T06:46:25.953Z,47.09
2023-08-11T06:48:54.375Z,47.65
2023-08-11T06:51:22.110Z,47.90
2023-08-11T06:53:49.742Z,47.12
2023-08-11T06:56:17.855Z,46.16
2023-08-11T06:59:19.563Z,47.05
2023-08-11T07:01:50.162Z,46.91
2023-08-11T07:04:17.763Z,46.18
2023-08-11T07:06:47.662Z,46.05
2023-08-11T07:09:15.566Z,45.62
2023-08-11T07:11:43.625Z,45.58
2023-08-11T07:14:11.297Z,46.76
2023-08-11T07:16:39.763Z,42.28
2023-08-11T07:19:07.501Z,44.62
2023-08-11T07:21:34.988Z,44.06
2023-08-11T07:24:03.496Z,44.31
2023-08-11T07:26:31.384Z,44.81
2023-08-11T07:28:59.137Z,45.08
2023-08-11T07:31:27.429Z,45.30
2023-08-11T07:33:55.009Z,44.80
2023-08-11T07:36:22.653Z,43.86
2023-08-11T07:38:50.724Z,42.70
2023-08-11T07:41:18.371Z,42.93
2023-08-11T07:43:50.702Z,43.03
2023-08-11T07:46:18.570Z,42.86
2023-08-11T07:48:46.156Z,42.92
2023-08-11T07:51:15.529Z,43.50
2023-08-11T07:53:45.647Z,42.56
2023-08-11T07:56:13.864Z,42.40
2023-08-11T07:58:41.858Z,43.46
2023-08-11T08:01:12.202Z,41.17
2023-08-11T08:03:42.011Z,42.16
2023-08-11T08:06:10.378Z,40.84
2023-08-11T08:08:38.066Z,41.18
2023-08-11T08:11:05.836Z,42.21
2023-08-11T08:13:33.435Z,41.58
2023-08-11T08:16:01.055Z,41.87
2023-08-11T08:18:29.069Z,41.38
2023-08-11T08:20:56.812Z,40.93
2023-08-11T08:23:24.385Z,40.23
2023-08-11T08:25:52.407Z,40.16
2023-08-11T08:28:21.866Z,41.92
2023-08-11T08:30:49.611Z,40.09
2023-08-11T08:33:17.666Z,40.29
2023-08-11T08:35:45.566Z,41.46
2023-08-11T08:38:13.047Z,41.09
2023-08-11T08:40:40.994Z,40.34
2023-08-11T08:43:10.059Z,39.71
2023-08-11T08:45:38.744Z,40.22
2023-08-11T08:48:10.855Z,40.43
2023-08-11T08:50:39.369Z,40.44
2023-08-11T08:53:07.310Z,40.36
2023-08-11T08:55:34.918Z,40.14
2023-08-11T08:58:02.757Z,40.88
2023-08-11T09:00:32.057Z,40.61
2023-08-11T09:03:01.788Z,40.48
2023-08-11T09:05:29.190Z,40.41
2023-08-11T09:07:56.696Z,41.35
2023-08-11T09:10:26.119Z,38.91
2023-08-11T09:12:54.021Z,38.38
2023-08-11T09:15:22.693Z,40.32
2023-08-11T09:17:51.806Z,40.39
2023-08-11T09:20:20.824Z,38.72
2023-08-11T09:22:50.531Z,38.96
2023-08-11T09:25:18.048Z,39.04
2023-08-11T09:27:50.572Z,38.95
2023-08-11T09:30:18.875Z,36.86
2023-08-11T09:32:50.512Z,36.87
2023-08-11T09:35:24.576Z,39.48
2023-08-11T09:37:54.461Z,38.63
2023-08-11T09:40:23.210Z,38.49
2023-08-11T09:42:56.418Z,37.03
2023-08-11T09:45:25.239Z,38.00
2023-08-11T09:47:52.782Z,37.80
2023-08-11T09:50:21.555Z,37.21
2023-08-11T09:52:49.551Z,36.22
2023-08-11T09:55:17.435Z,34.66
2023-08-11T09:57:45.352Z,34.87
2023-08-11T10:00:14.252Z,35.52
2023-08-11T10:02:48.023Z,37.29
2023-08-11T10:05:16.987Z,36.68
2023-08-11T10:07:46.242Z,36.88
2023-08-11T10:10:16.100Z,36.42
2023-08-11T10:12:49.679Z,36.96
2023-08-11T10:15:21.329Z,37.85
2023-08-11T10:17:49.508Z,38.03
2023-08-11T10:20:18.061Z,37.47
2023-08-11T10:22:46.044Z,37.60
2023-08-11T10:25:22.394Z,35.93
2023-08-11T10:27:50.953Z,36.72
2023-08-11T10:30:19.307Z,37.61
2023-08-11T10:32:46.917Z,38.65
2023-08-11T10:35:26.645Z,36.82
2023-08-11T10:37:58.183Z,37.37
2023-08-11T10:40:35.120Z,35.55
2023-08-11T10:43:04.445Z,35.96
2023-08-11T10:45:34.260Z,34.81
2023-08-11T10:48:09.473Z,35.37
2023-08-11T10:50:39.199Z,35.49
2023-08-11T10:53:08.784Z,36.01
2023-08-11T10:55:37.257Z,34.42
2023-08-11T10:58:12.652Z,35.01
2023-08-11T11:00:41.588Z,33.72
2023-08-11T11:03:10.353Z,35.65
2023-08-11T11:05:37.989Z,35.41
2023-08-11T11:08:05.508Z,33.91
2023-08-11T11:10:48.572Z,34.31
2023-08-11T11:13:18.424Z,31.70
2023-08-11T11:15:46.527Z,33.04
2023-08-11T11:18:14.130Z,33.22
2023-08-11T11:20:41.715Z,32.63
2023-08-11T11:23:09.676Z,31.07
2023-08-11T11:25:37.211Z,33.08
2023-08-11T11:28:04.991Z,34.15
2023-08-11T11:30:33.710Z,33.13
2023-08-11T11:33:04.352Z,33.85
2023-08-11T11:35:32.710Z,33.60
2023-08-11T11:38:00.431Z,33.20
2023-08-11T11:40:30.476Z,32.59
2023-08-11T11:42:58.648Z,34.81
2023-08-11T11:45:27.514Z,33.44
2023-08-11T11:47:56.455Z,32.88
2023-08-11T11:50:24.677Z,30.27
2023-08-11T11:52:52.311Z,33.31
2023-08-11T11:55:19.981Z,32.36
2023-08-11T11:57:49.003Z,31.25
2023-08-11T12:00:20.259Z,31.12
2023-08-11T12:02:48.814Z,31.27
2023-08-11T12:05:16.381Z,31.00
2023-08-11T12:07:44.326Z,31.26
2023-08-11T12:10:12.835Z,30.62
2023-08-11T12:12:40.538Z,30.30
2023-08-11T12:15:08.876Z,30.18
2023-08-11T12:17:37.793Z,30.98
2023-08-11T12:20:07.913Z,29.00
2023-08-11T12:22:35.609Z,27.18
2023-08-11T12:25:04.465Z,28.22
2023-08-11T12:27:32.065Z,27.37
2023-08-11T12:29:59.664Z,28.27
2023-08-11T12:32:27.605Z,27.62
2023-08-11T12:34:55.516Z,23.40
2023-08-11T12:37:23.254Z,23.31
2023-08-11T12:39:51.105Z,25.03
2023-08-11T12:42:18.949Z,25.48
2023-08-11T12:44:47.608Z,25.17
2023-08-11T12:47:15.549Z,27.85
2023-08-11T12:49:43.166Z,24.07
2023-08-11T12:52:11.408Z,25.24
2023-08-11T12:54:39.588Z,24.39
2023-08-11T12:57:07.226Z,25.10
2023-08-11T12:59:34.905Z,24.29
2023-08-11T13:02:02.905Z,25.35
2023-08-11T13:04:30.564Z,26.39
2023-08-11T13:07:00.792Z,24.29
2023-08-11T13:09:29.004Z,24.17
2023-08-11T13:11:57.045Z,25.03
2023-08-11T13:14:24.563Z,24.95
2023-08-11T13:16:52.665Z,24.81
2023-08-11T13:19:21.230Z,24.79
2023-08-11T13:21:48.948Z,25.02
2023-08-11T13:24:19.937Z,24.07
2023-08-11T13:26:48.703Z,24.36
2023-08-11T13:29:16.266Z,23.17
2023-08-11T13:31:44.074Z,22.74
2023-08-11T13:34:11.582Z,23.58
2023-08-11T13:36:40.898Z,23.83
2023-08-11T13:39:10.206Z,23.89
2023-08-11T13:41:38.168Z,23.14
2023-08-11T13:44:05.940Z,22.49
2023-08-11T13:46:33.883Z,23.93
2023-08-11T13:49:01.555Z,24.01
2023-08-11T13:51:29.257Z,22.94
2023-08-11T13:53:57.572Z,24.00
2023-08-11T13:56:25.104Z,24.43
2023-08-11T13:58:52.681Z,24.40
2023-08-11T14:01:20.675Z,24.30
2023-08-11T14:03:48.879Z,24.16
2023-08-11T14:06:17.164Z,21.84
2023-08-11T14:08:47.812Z,22.31
2023-08-11T14:11:16.831Z,22.45
2023-08-11T14:13:46.049Z,21.85
2023-08-11T14:16:13.993Z,20.66
2023-08-11T14:18:45.172Z,20.54
2023-08-11T14:21:14.195Z,20.52
2023-08-11T14:23:42.148Z,21.15
2023-08-11T14:26:10.093Z,22.24
2023-08-11T14:28:39.466Z,21.77
2023-08-11T14:31:13.824Z,21.72
2023-08-11T14:33:42.531Z,22.54
2023-08-11T14:36:13.378Z,23.58
2023-08-11T14:38:41.680Z,23.06
2023-08-11T14:41:09.271Z,23.27
2023-08-11T14:43:37.510Z,23.02
2023-08-11T14:46:04.996Z,23.49
2023-08-11T14:48:32.452Z,22.84
2023-08-11T14:51:00.509Z,22.50
2023-08-11T14:53:30.512Z,23.69
2023-08-11T14:55:58.075Z,23.16
2023-08-11T14:58:26.263Z,25.25
2023-08-11T15:00:54.638Z,24.91
2023-08-11T15:03:23.682Z,23.66
2023-08-11T15:05:51.732Z,23.26
2023-08-11T15:08:19.508Z,23.44
2023-08-11T15:10:47.037Z,25.25
2023-08-11T15:13:17.107Z,24.65
2023-08-11T15:15:44.891Z,24.55
2023-08-11T15:18:13.962Z,23.87
2023-08-11T15:20:42.225Z,23.97
2023-08-11T15:23:09.781Z,24.10
2023-08-11T15:25:38.145Z,23.34
2023-08-11T15:28:06.648Z,23.88
2023-08-11T15:30:34.202Z,23.47
2023-08-11T15:33:02.000Z,23.65
2023-08-11T15:35:32.098Z,22.87
2023-08-11T15:37:59.643Z,23.60
2023-08-11T15:40:27.368Z,24.79
2023-08-11T15:42:55.655Z,24.42
2023-08-11T15:45:23.407Z,25.07
2023-08-11T15:47:51.020Z,25.37
2023-08-11T15:50:19.373Z,24.79
2023-08-11T15:52:46.987Z,24.78
2023-08-11T15:55:17.030Z,24.45
2023-08-11T15:57:46.393Z,24.65
2023-08-11T16:00:14.450Z,24.59
2023-08-11T16:02:42.647Z,24.29
2023-08-11T16:05:11.101Z,24.72
2023-08-11T16:07:38.770Z,25.45
2023-08-11T16:10:07.320Z,24.75
2023-08-11T16:12:34.897Z,25.29
2023-08-11T16:15:06.712Z,25.43
2023-08-11T16:17:35.413Z,24.44
2023-08-11T16:20:03.133Z,25.33
2023-08-11T16:22:35.010Z,25.98
2023-08-11T16:25:03.375Z,26.46
2023-08-11T16:27:34.538Z,28.09
2023-08-11T16:30:02.600Z,27.10
2023-08-11T16:32:32.158Z,26.57
2023-08-11T16:35:00.360Z,25.63
2023-08-11T16:37:28.297Z,25.33
2023-08-11T16:39:56.105Z,25.73
2023-08-11T16:42:24.523Z,25.46
2023-08-11T16:44:52.728Z,25.89
2023-08-11T16:47:20.277Z,26.93
2023-08-11T16:49:48.447Z,26.96
2023-08-11T16:52:16.250Z,28.50
2023-08-11T16:54:48.257Z,27.46
2023-08-11T16:57:17.470Z,25.76
2023-08-11T16:59:46.129Z,27.29
2023-08-11T17:02:16.789Z,29.18
2023-08-11T17:04:44.738Z,29.77
2023-08-11T17:07:12.307Z,30.78
2023-08-11T17:09:40.163Z,30.89
2023-08-11T17:12:09.213Z,30.56
2023-08-11T17:14:37.239Z,31.03
2023-08-11T17:17:04.970Z,31.86
2023-08-11T17:19:33.031Z,31.83
2023-08-11T17:22:01.208Z,32.44
2023-08-11T17:24:28.921Z,32.95
2023-08-11T17:26:56.800Z,33.15
2023-08-11T17:29:24.363Z,33.72
2023-08-11T17:31:51.949Z,34.44
2023-08-11T17:34:19.845Z,33.99
2023-08-11T17:36:47.907Z,35.32
2023-08-11T17:39:15.716Z,35.33
2023-08-11T17:41:46.817Z,35.63
2023-08-11T17:44:14.937Z,35.48
2023-08-11T17:46:43.101Z,35.79
2023-08-11T17:49:10.770Z,36.09
2023-08-11T17:51:38.474Z,36.32
2023-08-11T17:54:09.704Z,37.10
2023-08-11T17:56:38.679Z,37.31
2023-08-11T17:59:07.405Z,38.02
2023-08-11T18:01:35.075Z,38.87
2023-08-11T18:04:07.459Z,39.02
2023-08-11T18:06:36.255Z,39.13
2023-08-11T18:09:04.987Z,40.10
2023-08-11T18:11:34.888Z,40.46
2023-08-11T18:14:02.718Z,40.57
2023-08-11T18:16:30.788Z,40.61
2023-08-11T18:18:59.905Z,41.24
2023-08-11T18:21:27.600Z,41.76
2023-08-11T18:23:55.803Z,41.40
2023-08-11T18:26:23.524Z,42.46
2023-08-11T18:41:13.155Z,42.90
2023-08-11T18:43:42.565Z,42.90
2023-08-11T18:46:10.299Z,43.85
2023-08-11T18:48:38.135Z,43.69
2023-08-11T18:51:07.181Z,43.58
2023-08-11T18:53:34.854Z,43.76
2023-08-11T18:56:02.418Z,43.99
2023-08-11T18:58:31.551Z,44.91
2023-08-11T19:01:00.094Z,45.51
2023-08-11T19:03:27.931Z,45.90
2023-08-11T19:05:59.540Z,46.27
2023-08-11T19:08:27.861Z,46.44
2023-08-11T19:10:56.190Z,47.29
2023-08-11T19:13:24.423Z,46.75
2023-08-11T19:15:52.088Z,47.07
2023-08-11T19:18:22.792Z,47.70
2023-08-11T19:20:50.404Z,47.81
2023-08-11T19:23:18.234Z,47.78
2023-08-11T19:25:46.717Z,47.48
2023-08-11T19:28:14.349Z,47.55
2023-08-11T19:30:42.345Z,47.87
2023-08-11T19:33:10.388Z,48.26
2023-08-11T19:35:38.706Z,48.32
2023-08-11T19:38:06.694Z,48.28
2023-08-11T19:40:34.814Z,48.76
2023-08-11T19:43:03.483Z,48.58
2023-08-11T19:45:32.222Z,48.84
2023-08-11T19:48:00.555Z,48.65
2023-08-11T19:50:28.213Z,48.73
2023-08-11T19:52:56.621Z,48.57
2023-08-11T19:55:24.664Z,48.72
2023-08-11T19:57:52.229Z,48.79
2023-08-11T20:02:48.507Z,49.07
2023-08-11T20:05:17.037Z,48.87
2023-08-11T20:07:44.799Z,48.43
2023-08-11T20:10:13.129Z,48.64
2023-08-11T20:12:41.011Z,48.71
2023-08-11T20:15:10.005Z,48.80
2023-08-11T20:17:38.415Z,48.81
2023-08-11T20:20:06.501Z,49.55
2023-08-11T20:22:34.134Z,49.77
2023-08-11T20:25:02.143Z,49.44
2023-08-11T20:27:29.806Z,49.79
2023-08-11T20:29:58.124Z,49.94
2023-08-11T20:32:26.177Z,50.04
2023-08-11T20:34:53.703Z,50.21
2023-08-11T20:37:22.234Z,50.61
2023-08-11T20:39:50.210Z,50.80
2023-08-11T20:42:17.805Z,51.47
2023-08-11T20:44:45.843Z,51.71
2023-08-11T20:47:14.149Z,51.86
2023-08-11T20:49:42.312Z,51.37
2023-08-11T20:52:09.953Z,51.63
2023-08-11T20:54:37.881Z,51.54
2023-08-11T20:57:05.475Z,52.32
2023-08-11T20:59:33.581Z,51.99
2023-08-11T21:02:01.612Z,51.79
2023-08-11T21:04:29.440Z,51.77
2023-08-11T21:06:57.166Z,51.63
2023-08-11T21:09:25.683Z,51.51
2023-08-11T21:11:53.735Z,51.16
2023-08-11T21:14:21.345Z,50.91
2023-08-11T21:16:50.557Z,50.53
2023-08-11T21:19:18.319Z,50.98
2023-08-11T21:21:46.339Z,51.24
2023-08-11T21:24:15.180Z,51.05
2023-08-11T21:26:42.725Z,51.08
2023-08-11T21:29:10.262Z,50.38
2023-08-11T21:31:38.336Z,51.53
2023-08-11T21:34:07.195Z,51.02
2023-08-11T21:36:35.414Z,50.54
2023-08-11T21:39:06.341Z,51.47
2023-08-11T21:41:34.801Z,51.24
2023-08-11T21:44:06.586Z,52.45
2023-08-11T21:46:34.548Z,52.52
2023-08-11T21:49:02.227Z,52.45
2023-08-11T21:51:30.226Z,52.52
2023-08-11T21:53:58.692Z,52.17
2023-08-11T21:56:26.515Z,52.06
2023-08-11T21:58:54.252Z,51.95
2023-08-11T22:01:22.610Z,51.73
2023-08-11T22:03:50.951Z,51.72
2023-08-11T22:06:18.525Z,51.76
2023-08-11T22:08:46.024Z,52.73
2023-08-11T22:11:26.029Z,52.70
2023-08-11T22:14:01.996Z,53.09
2023-08-11T22:16:30.835Z,53.23
2023-08-11T22:18:59.165Z,53.73
2023-08-11T22:21:36.741Z,53.88
2023-08-11T22:24:34.583Z,54.85
2023-08-11T22:27:17.407Z,54.15
2023-08-11T22:30:06.178Z,54.36
2023-08-11T22:32:51.532Z,54.48
2023-08-11T22:35:24.835Z,54.50
2023-08-11T22:37:54.318Z,54.50
2023-08-11T22:40:41.876Z,54.67
2023-08-11T22:43:27.951Z,54.72
2023-08-11T22:45:55.852Z,54.60
2023-08-11T22:48:28.647Z,54.70
2023-08-11T22:51:41.254Z,54.70
2023-08-11T22:54:09.349Z,54.80
2023-08-11T22:56:37.908Z,55.21
2023-08-11T22:59:06.013Z,55.03
2023-08-11T23:01:33.920Z,55.01
2023-08-11T23:04:01.535Z,55.27
2023-08-11T23:06:29.257Z,55.39
2023-08-11T23:08:57.256Z,55.80
2023-08-11T23:11:24.933Z,55.67
2023-08-11T23:13:52.545Z,55.54
2023-08-11T23:16:21.559Z,55.49
2023-08-11T23:18:49.771Z,55.82
2023-08-11T23:21:17.422Z,55.86
2023-08-11T23:23:45.298Z,55.72
2023-08-11T23:26:15.582Z,55.74
2023-08-11T23:28:43.491Z,56.01
2023-08-11T23:31:12.256Z,55.97
2023-08-11T23:33:39.837Z,56.01
2023-08-11T23:36:07.517Z,56.39
2023-08-11T23:38:36.491Z,56.30
2023-08-11T23:41:04.386Z,55.65
2023-08-11T23:43:31.872Z,56.00
2023-08-11T23:45:59.884Z,55.93
2023-08-11T23:48:27.685Z,55.62
2023-08-11T23:50:55.337Z,55.45
2023-08-11T23:53:23.920Z,55.83
2023-08-11T23:55:52.112Z,55.67
2023-08-11T23:58:20.088Z,55.73
